sensor_id;sensor_type;location;lat;lon;timestamp;P1;durP1;ratioP1;P2;durP2;ratioP2
58621;SDS011;44389;51.578;5.456;2023-03-14T00:01:48;13.40;;;3.03;;
58621;SDS011;44389;51.578;5.456;2023-03-14T00:04:14;10.48;;;3.22;;
58621;SDS011;44389;51.578;5.456;2023-03-14T00:06:40;12.02;;;2.85;;
58621;SDS011;44389;51.578;5.456;2023-03-14T00:09:05;10.95;;;2.65;;
58621;SDS011;44389;51.578;5.456;2023-03-14T00:11:30;12.27;;;3.35;;
58621;SDS011;44389;51.578;5.456;2023-03-14T00:13:56;12.85;;;2.60;;
58621;SDS011;44389;51.578;5.456;2023-03-14T00:16:21;11.48;;;2.72;;
58621;SDS011;44389;51.578;5.456;2023-03-14T00:18:47;12.95;;;2.83;;
58621;SDS011;44389;51.578;5.456;2023-03-14T00:21:12;10.43;;;2.60;;
58621;SDS011;44389;51.578;5.456;2023-03-14T00:23:38;14.38;;;3.13;;
58621;SDS011;44389;51.578;5.456;2023-03-14T00:26:06;11.65;;;2.80;;
58621;SDS011;44389;51.578;5.456;2023-03-14T00:28:34;13.43;;;3.00;;
58621;SDS011;44389;51.578;5.456;2023-03-14T00:31:02;10.95;;;2.70;;
58621;SDS011;44389;51.578;5.456;2023-03-14T00:33:28;16.30;;;3.17;;
58621;SDS011;44389;51.578;5.456;2023-03-14T00:35:58;10.35;;;2.47;;
58621;SDS011;44389;51.578;5.456;2023-03-14T00:38:29;11.95;;;2.63;;
58621;SDS011;44389;51.578;5.456;2023-03-14T00:40:55;12.25;;;2.97;;
58621;SDS011;44389;51.578;5.456;2023-03-14T00:43:21;13.70;;;2.92;;
58621;SDS011;44389;51.578;5.456;2023-03-14T00:45:48;14.60;;;2.80;;
58621;SDS011;44389;51.578;5.456;2023-03-14T00:48:14;11.45;;;2.17;;
58621;SDS011;44389;51.578;5.456;2023-03-14T00:50:39;12.32;;;2.47;;
58621;SDS011;44389;51.578;5.456;2023-03-14T00:53:04;14.98;;;2.35;;
58621;SDS011;44389;51.578;5.456;2023-03-14T00:55:30;12.45;;;2.60;;
58621;SDS011;44389;51.578;5.456;2023-03-14T00:57:55;8.98;;;2.45;;
58621;SDS011;44389;51.578;5.456;2023-03-14T01:00:20;12.57;;;2.25;;
58621;SDS011;44389;51.578;5.456;2023-03-14T01:02:45;11.13;;;2.20;;
58621;SDS011;44389;51.578;5.456;2023-03-14T01:05:11;16.05;;;2.63;;
58621;SDS011;44389;51.578;5.456;2023-03-14T01:07:36;11.43;;;2.30;;
58621;SDS011;44389;51.578;5.456;2023-03-14T01:10:03;9.30;;;2.50;;
58621;SDS011;44389;51.578;5.456;2023-03-14T01:12:29;13.75;;;2.88;;
58621;SDS011;44389;51.578;5.456;2023-03-14T01:14:54;13.82;;;2.83;;
58621;SDS011;44389;51.578;5.456;2023-03-14T01:17:20;13.95;;;3.00;;
58621;SDS011;44389;51.578;5.456;2023-03-14T01:19:45;14.45;;;2.60;;
58621;SDS011;44389;51.578;5.456;2023-03-14T01:22:10;13.27;;;3.00;;
58621;SDS011;44389;51.578;5.456;2023-03-14T01:24:36;9.40;;;2.00;;
58621;SDS011;44389;51.578;5.456;2023-03-14T01:27:02;10.02;;;2.33;;
58621;SDS011;44389;51.578;5.456;2023-03-14T01:29:27;9.18;;;2.15;;
58621;SDS011;44389;51.578;5.456;2023-03-14T01:31:53;18.70;;;3.15;;
58621;SDS011;44389;51.578;5.456;2023-03-14T01:34:18;10.60;;;2.10;;
58621;SDS011;44389;51.578;5.456;2023-03-14T01:36:43;10.68;;;2.58;;
58621;SDS011;44389;51.578;5.456;2023-03-14T01:39:09;8.20;;;2.08;;
58621;SDS011;44389;51.578;5.456;2023-03-14T01:41:35;10.05;;;2.28;;
58621;SDS011;44389;51.578;5.456;2023-03-14T01:44:00;10.50;;;2.05;;
58621;SDS011;44389;51.578;5.456;2023-03-14T01:46:34;10.85;;;2.00;;
58621;SDS011;44389;51.578;5.456;2023-03-14T01:49:14;12.65;;;2.42;;
58621;SDS011;44389;51.578;5.456;2023-03-14T01:51:47;9.60;;;2.17;;
58621;SDS011;44389;51.578;5.456;2023-03-14T01:54:18;12.52;;;2.60;;
58621;SDS011;44389;51.578;5.456;2023-03-14T01:57:02;12.70;;;2.30;;
58621;SDS011;44389;51.578;5.456;2023-03-14T01:59:31;13.65;;;2.45;;
58621;SDS011;44389;51.578;5.456;2023-03-14T02:01:57;10.88;;;2.38;;
58621;SDS011;44389;51.578;5.456;2023-03-14T02:04:24;11.98;;;2.28;;
58621;SDS011;44389;51.578;5.456;2023-03-14T02:06:58;15.75;;;2.92;;
58621;SDS011;44389;51.578;5.456;2023-03-14T02:09:28;12.60;;;2.72;;
58621;SDS011;44389;51.578;5.456;2023-03-14T02:11:54;15.73;;;3.00;;
58621;SDS011;44389;51.578;5.456;2023-03-14T02:14:31;9.73;;;2.85;;
58621;SDS011;44389;51.578;5.456;2023-03-14T02:16:57;15.57;;;3.42;;
58621;SDS011;44389;51.578;5.456;2023-03-14T02:19:31;14.27;;;3.15;;
58621;SDS011;44389;51.578;5.456;2023-03-14T02:22:22;11.35;;;2.92;;
58621;SDS011;44389;51.578;5.456;2023-03-14T02:27:27;12.65;;;3.03;;
58621;SDS011;44389;51.578;5.456;2023-03-14T02:32:23;12.88;;;3.15;;
58621;SDS011;44389;51.578;5.456;2023-03-14T02:34:54;13.07;;;3.00;;
58621;SDS011;44389;51.578;5.456;2023-03-14T02:37:23;14.38;;;3.70;;
58621;SDS011;44389;51.578;5.456;2023-03-14T02:39:52;18.13;;;2.95;;
58621;SDS011;44389;51.578;5.456;2023-03-14T02:42:17;21.77;;;3.95;;
58621;SDS011;44389;51.578;5.456;2023-03-14T02:44:54;16.20;;;3.15;;
58621;SDS011;44389;51.578;5.456;2023-03-14T02:47:28;20.35;;;3.75;;
58621;SDS011;44389;51.578;5.456;2023-03-14T02:49:58;15.23;;;3.33;;
58621;SDS011;44389;51.578;5.456;2023-03-14T02:52:27;21.58;;;4.25;;
58621;SDS011;44389;51.578;5.456;2023-03-14T02:54:53;20.52;;;4.28;;
58621;SDS011;44389;51.578;5.456;2023-03-14T02:57:18;17.92;;;4.03;;
58621;SDS011;44389;51.578;5.456;2023-03-14T02:59:43;13.18;;;3.05;;
58621;SDS011;44389;51.578;5.456;2023-03-14T03:02:08;17.13;;;4.20;;
58621;SDS011;44389;51.578;5.456;2023-03-14T03:04:34;13.82;;;3.58;;
58621;SDS011;44389;51.578;5.456;2023-03-14T03:06:59;16.05;;;3.38;;
58621;SDS011;44389;51.578;5.456;2023-03-14T03:09:24;20.38;;;3.88;;
58621;SDS011;44389;51.578;5.456;2023-03-14T03:11:49;15.27;;;3.45;;
58621;SDS011;44389;51.578;5.456;2023-03-14T03:14:15;16.98;;;4.18;;
58621;SDS011;44389;51.578;5.456;2023-03-14T03:16:40;18.70;;;3.45;;
58621;SDS011;44389;51.578;5.456;2023-03-14T03:19:05;14.85;;;3.80;;
58621;SDS011;44389;51.578;5.456;2023-03-14T03:21:31;16.60;;;3.63;;
58621;SDS011;44389;51.578;5.456;2023-03-14T03:23:56;13.73;;;3.00;;
58621;SDS011;44389;51.578;5.456;2023-03-14T03:26:21;13.85;;;3.20;;
58621;SDS011;44389;51.578;5.456;2023-03-14T03:28:46;18.95;;;3.55;;
58621;SDS011;44389;51.578;5.456;2023-03-14T03:31:12;15.07;;;3.22;;
58621;SDS011;44389;51.578;5.456;2023-03-14T03:33:37;13.15;;;3.25;;
58621;SDS011;44389;51.578;5.456;2023-03-14T03:36:03;15.43;;;3.00;;
58621;SDS011;44389;51.578;5.456;2023-03-14T03:38:29;16.80;;;3.33;;
58621;SDS011;44389;51.578;5.456;2023-03-14T03:40:54;17.30;;;3.30;;
58621;SDS011;44389;51.578;5.456;2023-03-14T03:43:19;16.63;;;3.47;;
58621;SDS011;44389;51.578;5.456;2023-03-14T03:45:45;12.38;;;2.85;;
58621;SDS011;44389;51.578;5.456;2023-03-14T03:48:10;13.85;;;3.38;;
58621;SDS011;44389;51.578;5.456;2023-03-14T03:50:35;15.93;;;3.50;;
58621;SDS011;44389;51.578;5.456;2023-03-14T03:53:01;15.98;;;3.17;;
58621;SDS011;44389;51.578;5.456;2023-03-14T03:55:26;17.15;;;3.53;;
58621;SDS011;44389;51.578;5.456;2023-03-14T03:57:53;10.20;;;2.45;;
58621;SDS011;44389;51.578;5.456;2023-03-14T04:00:18;13.93;;;2.53;;
58621;SDS011;44389;51.578;5.456;2023-03-14T04:02:43;8.63;;;2.10;;
58621;SDS011;44389;51.578;5.456;2023-03-14T04:05:09;12.13;;;2.53;;
58621;SDS011;44389;51.578;5.456;2023-03-14T04:07:34;12.15;;;2.60;;
58621;SDS011;44389;51.578;5.456;2023-03-14T04:10:00;9.13;;;2.47;;
58621;SDS011;44389;51.578;5.456;2023-03-14T04:12:25;13.60;;;2.35;;
58621;SDS011;44389;51.578;5.456;2023-03-14T04:14:50;11.80;;;2.50;;
58621;SDS011;44389;51.578;5.456;2023-03-14T04:17:16;13.52;;;2.90;;
58621;SDS011;44389;51.578;5.456;2023-03-14T04:19:41;12.85;;;2.30;;
58621;SDS011;44389;51.578;5.456;2023-03-14T04:22:07;14.32;;;2.33;;
58621;SDS011;44389;51.578;5.456;2023-03-14T04:24:32;14.95;;;2.70;;
58621;SDS011;44389;51.578;5.456;2023-03-14T04:26:57;12.70;;;2.90;;
58621;SDS011;44389;51.578;5.456;2023-03-14T04:29:23;18.65;;;3.67;;
58621;SDS011;44389;51.578;5.456;2023-03-14T04:31:48;8.88;;;1.98;;
58621;SDS011;44389;51.578;5.456;2023-03-14T04:34:13;8.63;;;2.50;;
58621;SDS011;44389;51.578;5.456;2023-03-14T04:36:39;10.90;;;2.17;;
58621;SDS011;44389;51.578;5.456;2023-03-14T04:39:04;11.60;;;2.47;;
58621;SDS011;44389;51.578;5.456;2023-03-14T04:41:29;8.40;;;2.83;;
58621;SDS011;44389;51.578;5.456;2023-03-14T04:43:55;9.27;;;2.15;;
58621;SDS011;44389;51.578;5.456;2023-03-14T04:46:20;9.45;;;2.50;;
58621;SDS011;44389;51.578;5.456;2023-03-14T04:48:46;8.73;;;2.35;;
58621;SDS011;44389;51.578;5.456;2023-03-14T04:51:11;10.52;;;2.53;;
58621;SDS011;44389;51.578;5.456;2023-03-14T04:53:36;9.75;;;2.15;;
58621;SDS011;44389;51.578;5.456;2023-03-14T04:56:02;8.88;;;2.10;;
58621;SDS011;44389;51.578;5.456;2023-03-14T04:58:27;6.82;;;2.20;;
58621;SDS011;44389;51.578;5.456;2023-03-14T05:00:52;9.45;;;2.25;;
58621;SDS011;44389;51.578;5.456;2023-03-14T05:03:18;10.65;;;2.13;;
58621;SDS011;44389;51.578;5.456;2023-03-14T05:05:44;10.23;;;2.50;;
58621;SDS011;44389;51.578;5.456;2023-03-14T05:08:10;8.85;;;2.42;;
58621;SDS011;44389;51.578;5.456;2023-03-14T05:10:36;11.15;;;3.20;;
58621;SDS011;44389;51.578;5.456;2023-03-14T05:13:01;8.75;;;2.60;;
58621;SDS011;44389;51.578;5.456;2023-03-14T05:15:27;6.78;;;3.00;;
58621;SDS011;44389;51.578;5.456;2023-03-14T05:17:52;11.82;;;3.60;;
58621;SDS011;44389;51.578;5.456;2023-03-14T05:20:19;9.13;;;3.10;;
58621;SDS011;44389;51.578;5.456;2023-03-14T05:22:44;13.07;;;3.60;;
58621;SDS011;44389;51.578;5.456;2023-03-14T05:25:09;10.40;;;4.13;;
58621;SDS011;44389;51.578;5.456;2023-03-14T05:27:35;9.88;;;3.08;;
58621;SDS011;44389;51.578;5.456;2023-03-14T05:30:00;10.38;;;3.35;;
58621;SDS011;44389;51.578;5.456;2023-03-14T05:32:27;12.23;;;3.50;;
58621;SDS011;44389;51.578;5.456;2023-03-14T05:34:52;15.88;;;4.18;;
58621;SDS011;44389;51.578;5.456;2023-03-14T05:37:18;12.65;;;4.15;;
58621;SDS011;44389;51.578;5.456;2023-03-14T05:39:43;9.73;;;4.20;;
58621;SDS011;44389;51.578;5.456;2023-03-14T05:42:09;9.52;;;4.20;;
58621;SDS011;44389;51.578;5.456;2023-03-14T05:44:34;11.93;;;4.78;;
58621;SDS011;44389;51.578;5.456;2023-03-14T05:46:59;12.82;;;5.47;;
58621;SDS011;44389;51.578;5.456;2023-03-14T05:49:25;15.55;;;5.57;;
58621;SDS011;44389;51.578;5.456;2023-03-14T05:51:50;16.40;;;5.78;;
58621;SDS011;44389;51.578;5.456;2023-03-14T05:54:16;10.93;;;5.70;;
58621;SDS011;44389;51.578;5.456;2023-03-14T05:56:41;19.13;;;6.10;;
58621;SDS011;44389;51.578;5.456;2023-03-14T05:59:06;18.45;;;6.18;;
58621;SDS011;44389;51.578;5.456;2023-03-14T06:01:34;13.82;;;6.43;;
58621;SDS011;44389;51.578;5.456;2023-03-14T06:03:59;15.82;;;6.55;;
58621;SDS011;44389;51.578;5.456;2023-03-14T06:06:24;13.13;;;6.28;;
58621;SDS011;44389;51.578;5.456;2023-03-14T06:08:50;12.52;;;5.75;;
58621;SDS011;44389;51.578;5.456;2023-03-14T06:11:15;16.73;;;6.32;;
58621;SDS011;44389;51.578;5.456;2023-03-14T06:13:40;14.45;;;6.32;;
58621;SDS011;44389;51.578;5.456;2023-03-14T06:16:06;15.43;;;6.93;;
58621;SDS011;44389;51.578;5.456;2023-03-14T06:18:31;13.32;;;6.90;;
58621;SDS011;44389;51.578;5.456;2023-03-14T06:20:57;18.95;;;7.45;;
58621;SDS011;44389;51.578;5.456;2023-03-14T06:23:22;18.65;;;7.35;;
58621;SDS011;44389;51.578;5.456;2023-03-14T06:25:48;17.73;;;8.02;;
58621;SDS011;44389;51.578;5.456;2023-03-14T06:28:13;19.50;;;7.78;;
58621;SDS011;44389;51.578;5.456;2023-03-14T06:30:38;16.80;;;7.68;;
58621;SDS011;44389;51.578;5.456;2023-03-14T06:33:04;16.33;;;7.75;;
58621;SDS011;44389;51.578;5.456;2023-03-14T06:35:29;16.17;;;7.53;;
58621;SDS011;44389;51.578;5.456;2023-03-14T06:37:54;15.77;;;8.43;;
58621;SDS011;44389;51.578;5.456;2023-03-14T06:40:20;18.80;;;8.98;;
58621;SDS011;44389;51.578;5.456;2023-03-14T06:42:45;14.73;;;7.88;;
58621;SDS011;44389;51.578;5.456;2023-03-14T06:45:11;17.63;;;8.18;;
58621;SDS011;44389;51.578;5.456;2023-03-14T06:47:37;17.98;;;8.27;;
58621;SDS011;44389;51.578;5.456;2023-03-14T06:50:03;16.98;;;9.02;;
58621;SDS011;44389;51.578;5.456;2023-03-14T06:52:29;17.75;;;8.60;;
58621;SDS011;44389;51.578;5.456;2023-03-14T06:54:54;19.17;;;8.75;;
58621;SDS011;44389;51.578;5.456;2023-03-14T06:57:20;16.85;;;8.40;;
58621;SDS011;44389;51.578;5.456;2023-03-14T06:59:45;14.57;;;8.00;;
58621;SDS011;44389;51.578;5.456;2023-03-14T07:02:11;17.20;;;8.60;;
58621;SDS011;44389;51.578;5.456;2023-03-14T07:04:37;16.38;;;9.02;;
58621;SDS011;44389;51.578;5.456;2023-03-14T07:07:02;16.30;;;8.70;;
58621;SDS011;44389;51.578;5.456;2023-03-14T07:09:28;16.08;;;8.60;;
58621;SDS011;44389;51.578;5.456;2023-03-14T07:11:53;18.42;;;8.07;;
58621;SDS011;44389;51.578;5.456;2023-03-14T07:14:18;20.48;;;9.15;;
58621;SDS011;44389;51.578;5.456;2023-03-14T07:16:44;18.85;;;8.70;;
58621;SDS011;44389;51.578;5.456;2023-03-14T07:19:10;15.73;;;8.55;;
58621;SDS011;44389;51.578;5.456;2023-03-14T07:21:35;16.83;;;8.68;;
58621;SDS011;44389;51.578;5.456;2023-03-14T07:24:00;20.65;;;9.15;;
58621;SDS011;44389;51.578;5.456;2023-03-14T07:26:26;8.68;;;4.20;;
58621;SDS011;44389;51.578;5.456;2023-03-14T07:28:51;6.45;;;3.10;;
58621;SDS011;44389;51.578;5.456;2023-03-14T07:31:17;7.53;;;2.78;;
58621;SDS011;44389;51.578;5.456;2023-03-14T07:33:42;4.20;;;1.50;;
58621;SDS011;44389;51.578;5.456;2023-03-14T07:36:08;4.07;;;1.13;;
58621;SDS011;44389;51.578;5.456;2023-03-14T07:38:33;2.88;;;0.90;;
58621;SDS011;44389;51.578;5.456;2023-03-14T07:40:59;3.90;;;1.10;;
58621;SDS011;44389;51.578;5.456;2023-03-14T07:43:25;3.67;;;1.00;;
58621;SDS011;44389;51.578;5.456;2023-03-14T07:45:50;4.57;;;1.35;;
58621;SDS011;44389;51.578;5.456;2023-03-14T07:48:16;8.27;;;1.50;;
58621;SDS011;44389;51.578;5.456;2023-03-14T07:50:41;4.40;;;1.50;;
58621;SDS011;44389;51.578;5.456;2023-03-14T07:53:06;6.20;;;1.83;;
58621;SDS011;44389;51.578;5.456;2023-03-14T07:55:31;5.03;;;2.17;;
58621;SDS011;44389;51.578;5.456;2023-03-14T07:57:57;5.80;;;2.25;;
58621;SDS011;44389;51.578;5.456;2023-03-14T08:00:22;6.85;;;2.67;;
58621;SDS011;44389;51.578;5.456;2023-03-14T08:02:47;5.85;;;2.67;;
58621;SDS011;44389;51.578;5.456;2023-03-14T08:05:13;4.50;;;2.20;;
58621;SDS011;44389;51.578;5.456;2023-03-14T08:07:38;9.93;;;3.38;;
58621;SDS011;44389;51.578;5.456;2023-03-14T08:10:03;6.35;;;2.80;;
58621;SDS011;44389;51.578;5.456;2023-03-14T08:12:30;6.95;;;2.80;;
58621;SDS011;44389;51.578;5.456;2023-03-14T08:14:55;6.93;;;3.28;;
58621;SDS011;44389;51.578;5.456;2023-03-14T08:17:20;5.95;;;3.00;;
58621;SDS011;44389;51.578;5.456;2023-03-14T08:19:45;5.03;;;2.20;;
58621;SDS011;44389;51.578;5.456;2023-03-14T08:22:11;5.95;;;2.40;;
58621;SDS011;44389;51.578;5.456;2023-03-14T08:24:36;4.95;;;2.03;;
58621;SDS011;44389;51.578;5.456;2023-03-14T08:27:01;7.40;;;2.22;;
58621;SDS011;44389;51.578;5.456;2023-03-14T08:29:27;7.72;;;2.28;;
58621;SDS011;44389;51.578;5.456;2023-03-14T08:31:52;7.40;;;2.33;;
58621;SDS011;44389;51.578;5.456;2023-03-14T08:34:18;8.90;;;2.30;;
58621;SDS011;44389;51.578;5.456;2023-03-14T08:36:44;8.30;;;2.17;;
58621;SDS011;44389;51.578;5.456;2023-03-14T08:39:09;7.03;;;2.08;;
58621;SDS011;44389;51.578;5.456;2023-03-14T08:41:35;8.95;;;2.40;;
58621;SDS011;44389;51.578;5.456;2023-03-14T08:44:05;5.13;;;1.95;;
58621;SDS011;44389;51.578;5.456;2023-03-14T08:46:34;7.13;;;2.40;;
58621;SDS011;44389;51.578;5.456;2023-03-14T08:48:59;7.15;;;2.38;;
58621;SDS011;44389;51.578;5.456;2023-03-14T08:51:24;5.95;;;2.22;;
58621;SDS011;44389;51.578;5.456;2023-03-14T08:53:50;10.15;;;2.33;;
58621;SDS011;44389;51.578;5.456;2023-03-14T08:56:15;8.63;;;2.25;;
58621;SDS011;44389;51.578;5.456;2023-03-14T08:58:41;7.82;;;2.40;;
58621;SDS011;44389;51.578;5.456;2023-03-14T09:01:08;9.07;;;2.80;;
58621;SDS011;44389;51.578;5.456;2023-03-14T09:03:34;6.43;;;2.17;;
58621;SDS011;44389;51.578;5.456;2023-03-14T09:06:03;8.27;;;2.90;;
58621;SDS011;44389;51.578;5.456;2023-03-14T09:08:31;9.73;;;3.05;;
58621;SDS011;44389;51.578;5.456;2023-03-14T09:10:56;9.73;;;2.67;;
58621;SDS011;44389;51.578;5.456;2023-03-14T09:13:22;9.35;;;2.58;;
58621;SDS011;44389;51.578;5.456;2023-03-14T09:15:51;10.73;;;2.88;;
58621;SDS011;44389;51.578;5.456;2023-03-14T09:18:21;7.60;;;2.30;;
58621;SDS011;44389;51.578;5.456;2023-03-14T09:20:47;7.80;;;2.20;;
58621;SDS011;44389;51.578;5.456;2023-03-14T09:23:13;5.47;;;1.80;;
58621;SDS011;44389;51.578;5.456;2023-03-14T09:25:38;4.50;;;1.60;;
58621;SDS011;44389;51.578;5.456;2023-03-14T09:28:04;4.90;;;1.67;;
58621;SDS011;44389;51.578;5.456;2023-03-14T09:30:30;6.25;;;1.85;;
58621;SDS011;44389;51.578;5.456;2023-03-14T09:32:55;6.88;;;1.90;;
58621;SDS011;44389;51.578;5.456;2023-03-14T09:35:22;4.38;;;1.90;;
58621;SDS011;44389;51.578;5.456;2023-03-14T09:37:47;3.85;;;1.60;;
58621;SDS011;44389;51.578;5.456;2023-03-14T09:40:14;5.63;;;1.30;;
58621;SDS011;44389;51.578;5.456;2023-03-14T09:42:41;3.28;;;1.10;;
58621;SDS011;44389;51.578;5.456;2023-03-14T09:45:11;4.15;;;1.02;;
58621;SDS011;44389;51.578;5.456;2023-03-14T09:47:42;4.30;;;1.15;;
58621;SDS011;44389;51.578;5.456;2023-03-14T09:50:17;3.65;;;1.23;;
58621;SDS011;44389;51.578;5.456;2023-03-14T09:52:45;4.35;;;1.15;;
58621;SDS011;44389;51.578;5.456;2023-03-14T09:55:20;4.45;;;0.95;;
58621;SDS011;44389;51.578;5.456;2023-03-14T09:57:47;4.10;;;1.20;;
58621;SDS011;44389;51.578;5.456;2023-03-14T10:00:22;9.18;;;1.65;;
58621;SDS011;44389;51.578;5.456;2023-03-14T10:02:53;6.60;;;1.45;;
58621;SDS011;44389;51.578;5.456;2023-03-14T10:05:40;8.10;;;1.85;;
58621;SDS011;44389;51.578;5.456;2023-03-14T10:08:09;6.75;;;1.38;;
58621;SDS011;44389;51.578;5.456;2023-03-14T10:10:35;9.15;;;1.90;;
58621;SDS011;44389;51.578;5.456;2023-03-14T10:15:50;12.68;;;2.13;;
58621;SDS011;44389;51.578;5.456;2023-03-14T10:18:25;9.80;;;2.10;;
58621;SDS011;44389;51.578;5.456;2023-03-14T10:21:02;11.85;;;2.20;;
58621;SDS011;44389;51.578;5.456;2023-03-14T10:23:29;12.23;;;1.83;;
58621;SDS011;44389;51.578;5.456;2023-03-14T10:28:29;14.80;;;2.67;;
58621;SDS011;44389;51.578;5.456;2023-03-14T10:30:57;9.65;;;2.20;;
58621;SDS011;44389;51.578;5.456;2023-03-14T10:33:24;13.00;;;2.78;;
58621;SDS011;44389;51.578;5.456;2023-03-14T10:36:01;13.60;;;2.30;;
58621;SDS011;44389;51.578;5.456;2023-03-14T10:38:34;16.40;;;2.95;;
58621;SDS011;44389;51.578;5.456;2023-03-14T10:41:01;20.73;;;2.65;;
58621;SDS011;44389;51.578;5.456;2023-03-14T10:43:31;13.82;;;3.08;;
58621;SDS011;44389;51.578;5.456;2023-03-14T10:46:19;18.90;;;3.35;;
58621;SDS011;44389;51.578;5.456;2023-03-14T10:48:45;15.63;;;2.92;;
58621;SDS011;44389;51.578;5.456;2023-03-14T10:56:16;22.27;;;3.72;;
58621;SDS011;44389;51.578;5.456;2023-03-14T10:58:48;23.65;;;4.45;;
58621;SDS011;44389;51.578;5.456;2023-03-14T11:07:13;29.83;;;4.70;;
58621;SDS011;44389;51.578;5.456;2023-03-14T11:16:01;19.75;;;3.90;;
58621;SDS011;44389;51.578;5.456;2023-03-14T11:18:36;24.50;;;4.88;;
58621;SDS011;44389;51.578;5.456;2023-03-14T11:21:18;21.80;;;4.10;;
58621;SDS011;44389;51.578;5.456;2023-03-14T11:23:56;27.20;;;4.90;;
58621;SDS011;44389;51.578;5.456;2023-03-14T11:30:12;28.60;;;4.82;;
58621;SDS011;44389;51.578;5.456;2023-03-14T11:32:50;29.60;;;4.65;;
58621;SDS011;44389;51.578;5.456;2023-03-14T11:37:55;32.63;;;6.00;;
58621;SDS011;44389;51.578;5.456;2023-03-14T11:40:37;30.75;;;5.05;;
58621;SDS011;44389;51.578;5.456;2023-03-14T11:43:15;26.52;;;5.38;;
58621;SDS011;44389;51.578;5.456;2023-03-14T11:45:45;29.00;;;5.00;;
58621;SDS011;44389;51.578;5.456;2023-03-14T11:51:28;25.95;;;4.32;;
58621;SDS011;44389;51.578;5.456;2023-03-14T11:58:58;36.67;;;5.65;;
58621;SDS011;44389;51.578;5.456;2023-03-14T12:01:31;28.75;;;5.00;;
58621;SDS011;44389;51.578;5.456;2023-03-14T12:04:13;21.27;;;4.63;;
58621;SDS011;44389;51.578;5.456;2023-03-14T12:06:47;19.85;;;3.78;;
58621;SDS011;44389;51.578;5.456;2023-03-14T12:09:14;21.05;;;3.90;;
58621;SDS011;44389;51.578;5.456;2023-03-14T12:14:22;19.60;;;3.85;;
58621;SDS011;44389;51.578;5.456;2023-03-14T12:16:53;19.63;;;3.90;;
58621;SDS011;44389;51.578;5.456;2023-03-14T12:21:55;23.50;;;4.97;;
58621;SDS011;44389;51.578;5.456;2023-03-14T12:24:24;28.40;;;4.07;;
58621;SDS011;44389;51.578;5.456;2023-03-14T12:26:54;25.33;;;4.68;;
58621;SDS011;44389;51.578;5.456;2023-03-14T12:29:24;25.73;;;4.85;;
58621;SDS011;44389;51.578;5.456;2023-03-14T12:32:06;32.10;;;4.68;;
58621;SDS011;44389;51.578;5.456;2023-03-14T12:34:33;39.33;;;5.70;;
58621;SDS011;44389;51.578;5.456;2023-03-14T12:37:12;32.75;;;6.10;;
58621;SDS011;44389;51.578;5.456;2023-03-14T12:42:44;32.72;;;6.03;;
58621;SDS011;44389;51.578;5.456;2023-03-14T12:47:57;25.08;;;5.50;;
58621;SDS011;44389;51.578;5.456;2023-03-14T12:50:30;30.40;;;5.32;;
58621;SDS011;44389;51.578;5.456;2023-03-14T12:55:42;24.73;;;4.97;;
58621;SDS011;44389;51.578;5.456;2023-03-14T12:58:19;24.90;;;5.38;;
58621;SDS011;44389;51.578;5.456;2023-03-14T13:01:02;25.52;;;4.90;;
58621;SDS011;44389;51.578;5.456;2023-03-14T13:06:04;24.42;;;5.35;;
58621;SDS011;44389;51.578;5.456;2023-03-14T13:11:24;19.48;;;4.07;;
58621;SDS011;44389;51.578;5.456;2023-03-14T13:13:57;19.33;;;3.60;;
58621;SDS011;44389;51.578;5.456;2023-03-14T13:16:23;22.73;;;3.95;;
58621;SDS011;44389;51.578;5.456;2023-03-14T13:19:11;17.98;;;3.88;;
58621;SDS011;44389;51.578;5.456;2023-03-14T13:21:49;16.10;;;3.25;;
58621;SDS011;44389;51.578;5.456;2023-03-14T13:24:21;13.18;;;2.72;;
58621;SDS011;44389;51.578;5.456;2023-03-14T13:26:51;14.15;;;2.80;;
58621;SDS011;44389;51.578;5.456;2023-03-14T13:31:47;13.55;;;2.92;;
58621;SDS011;44389;51.578;5.456;2023-03-14T13:34:14;11.18;;;2.75;;
58621;SDS011;44389;51.578;5.456;2023-03-14T13:36:39;11.88;;;3.03;;
58621;SDS011;44389;51.578;5.456;2023-03-14T13:39:17;14.25;;;3.05;;
58621;SDS011;44389;51.578;5.456;2023-03-14T13:41:44;13.00;;;2.85;;
58621;SDS011;44389;51.578;5.456;2023-03-14T13:44:18;15.43;;;3.22;;
58621;SDS011;44389;51.578;5.456;2023-03-14T13:46:50;14.77;;;2.97;;
58621;SDS011;44389;51.578;5.456;2023-03-14T13:49:21;13.20;;;3.22;;
58621;SDS011;44389;51.578;5.456;2023-03-14T13:51:48;14.65;;;3.10;;
58621;SDS011;44389;51.578;5.456;2023-03-14T13:54:18;14.85;;;3.33;;
58621;SDS011;44389;51.578;5.456;2023-03-14T13:56:45;14.30;;;3.42;;
58621;SDS011;44389;51.578;5.456;2023-03-14T13:59:21;14.98;;;2.88;;
58621;SDS011;44389;51.578;5.456;2023-03-14T14:01:48;13.52;;;2.85;;
58621;SDS011;44389;51.578;5.456;2023-03-14T14:04:15;11.65;;;3.00;;
58621;SDS011;44389;51.578;5.456;2023-03-14T14:06:45;15.18;;;3.00;;
58621;SDS011;44389;51.578;5.456;2023-03-14T14:09:15;13.63;;;2.70;;
58621;SDS011;44389;51.578;5.456;2023-03-14T14:11:43;16.02;;;3.13;;
58621;SDS011;44389;51.578;5.456;2023-03-14T14:14:26;18.77;;;3.58;;
58621;SDS011;44389;51.578;5.456;2023-03-14T14:16:54;11.02;;;2.72;;
58621;SDS011;44389;51.578;5.456;2023-03-14T14:19:23;11.05;;;2.65;;
58621;SDS011;44389;51.578;5.456;2023-03-14T14:21:52;16.45;;;3.10;;
58621;SDS011;44389;51.578;5.456;2023-03-14T14:24:19;15.50;;;3.30;;
58621;SDS011;44389;51.578;5.456;2023-03-14T14:26:50;11.43;;;2.85;;
58621;SDS011;44389;51.578;5.456;2023-03-14T14:29:25;11.98;;;2.78;;
58621;SDS011;44389;51.578;5.456;2023-03-14T14:31:59;14.75;;;3.10;;
58621;SDS011;44389;51.578;5.456;2023-03-14T14:34:26;16.05;;;3.08;;
58621;SDS011;44389;51.578;5.456;2023-03-14T14:36:52;18.10;;;3.55;;
58621;SDS011;44389;51.578;5.456;2023-03-14T14:39:19;14.48;;;2.95;;
58621;SDS011;44389;51.578;5.456;2023-03-14T14:41:48;11.75;;;2.97;;
58621;SDS011;44389;51.578;5.456;2023-03-14T14:44:16;15.73;;;2.70;;
58621;SDS011;44389;51.578;5.456;2023-03-14T14:46:45;12.73;;;2.72;;
58621;SDS011;44389;51.578;5.456;2023-03-14T14:49:14;12.25;;;2.53;;
58621;SDS011;44389;51.578;5.456;2023-03-14T14:51:44;13.07;;;2.42;;
58621;SDS011;44389;51.578;5.456;2023-03-14T14:54:15;14.35;;;2.55;;
58621;SDS011;44389;51.578;5.456;2023-03-14T14:56:52;15.85;;;2.63;;
58621;SDS011;44389;51.578;5.456;2023-03-14T14:59:22;12.38;;;2.60;;
58621;SDS011;44389;51.578;5.456;2023-03-14T15:01:49;12.23;;;2.58;;
58621;SDS011;44389;51.578;5.456;2023-03-14T15:04:19;11.98;;;2.58;;
58621;SDS011;44389;51.578;5.456;2023-03-14T15:06:46;13.60;;;2.63;;
58621;SDS011;44389;51.578;5.456;2023-03-14T15:09:14;13.45;;;3.13;;
58621;SDS011;44389;51.578;5.456;2023-03-14T15:11:42;14.40;;;3.10;;
58621;SDS011;44389;51.578;5.456;2023-03-14T15:14:07;15.55;;;2.47;;
58621;SDS011;44389;51.578;5.456;2023-03-14T15:16:33;12.25;;;2.40;;
58621;SDS011;44389;51.578;5.456;2023-03-14T15:18:59;13.57;;;2.70;;
58621;SDS011;44389;51.578;5.456;2023-03-14T15:21:27;13.63;;;2.42;;
58621;SDS011;44389;51.578;5.456;2023-03-14T15:23:53;10.27;;;3.15;;
58621;SDS011;44389;51.578;5.456;2023-03-14T15:26:23;16.30;;;2.92;;
58621;SDS011;44389;51.578;5.456;2023-03-14T15:28:50;13.05;;;2.35;;
58621;SDS011;44389;51.578;5.456;2023-03-14T15:31:16;13.90;;;2.92;;
58621;SDS011;44389;51.578;5.456;2023-03-14T15:33:43;10.60;;;2.67;;
58621;SDS011;44389;51.578;5.456;2023-03-14T15:36:19;19.30;;;2.95;;
58621;SDS011;44389;51.578;5.456;2023-03-14T15:38:49;13.07;;;2.60;;
58621;SDS011;44389;51.578;5.456;2023-03-14T15:41:15;9.73;;;2.50;;
58621;SDS011;44389;51.578;5.456;2023-03-14T15:43:41;11.60;;;2.80;;
58621;SDS011;44389;51.578;5.456;2023-03-14T15:46:08;14.57;;;3.05;;